Terminal Aerodrome Forecast
Issued by NWS

Home | Current Version | Previous Version | Text Only | Print | Product List | Glossary On
Versions: 1 2 3 4 5 6 7 8 9 10 11 12 13 14 15 16 17 18 19 20 21 22 23 24
000
FTPA31 PHFO 091141
TAFMDY
TAF
PMDY 091141Z 0912/1012 15005KT P6SM VCSH SCT035 OVC080
     FM092100 20007KT P6SM VCSH SCT030 BKN050
     FM100600 34008KT P6SM SCT025 BKN040=

USA.gov is the U.S. government's official web portal to all federal, state and local government web resources and services.